Peach Springs, Arizona
Current Conditions -  °F | °C
As of 2:51 AM on Monday 26 Jan 2015 (Local Time) from KIGM Reporting Station
NA  
Wind Chill: 43°   Ceiling: NA
Heat Index: 43°   Visibility: NA
Dew Point: 24°   Wind: 0mph
Humidity: 47%   Direction: NA
Pressure: 30.2"   Gusts: NA
Location:  35.53°N, 113.43°W
Report Text: KIGM 260951Z AUTO 00000KT 06/M04 A3020 RMK AO2 SLP186 T00611044 $
Loading
Personal Weather Stations






























Interactive Weather Map New forecast layout! Learn more

10-Day Weather Forecast

Advertisements
Track Severe Weather on mobile